Sao Luis do Paraitinga, Brazil
Current Conditions -  °F | °C
As of 3:00 PM on Thursday 23 Oct 2014 (Local Time) from SBSJ Reporting Station
Clear Clear  
Wind Chill: 88°   Ceiling: Unl
Heat Index: 88°   Visibility: 6mi
Dew Point: 54°   Wind: 5mph
Humidity: 31%   Direction: 130°SE
Pressure: 30.06"   Gusts: NA
Location:  23.23°S, 45.32°W
Report Text: SBSJ 231700Z 13004KT CAVOK 31/12 Q1018
Loading
Personal Weather Stations






























Interactive Weather Map
Tropical Storm Tracking
New forecast layout! Learn more

10-Day Weather Forecast

Advertisements
Track Severe Weather on mobile